sensor_id;sensor_type;location;lat;lon;timestamp;P1;durP1;ratioP1;P2;durP2;ratioP2
7074;SDS011;3578;51.568;6.932;2023-02-15T00:01:42;23.93;;;15.93;;
7074;SDS011;3578;51.568;6.932;2023-02-15T00:04:12;28.30;;;16.00;;
7074;SDS011;3578;51.568;6.932;2023-02-15T00:06:41;20.40;;;15.13;;
7074;SDS011;3578;51.568;6.932;2023-02-15T00:09:09;21.63;;;14.60;;
7074;SDS011;3578;51.568;6.932;2023-02-15T00:11:36;22.43;;;14.83;;
7074;SDS011;3578;51.568;6.932;2023-02-15T00:14:11;19.60;;;14.40;;
7074;SDS011;3578;51.568;6.932;2023-02-15T00:16:41;25.90;;;15.40;;
7074;SDS011;3578;51.568;6.932;2023-02-15T00:19:11;18.23;;;14.23;;
7074;SDS011;3578;51.568;6.932;2023-02-15T00:21:41;22.07;;;14.90;;
7074;SDS011;3578;51.568;6.932;2023-02-15T00:24:09;31.37;;;15.13;;
7074;SDS011;3578;51.568;6.932;2023-02-15T00:26:39;22.20;;;16.13;;
7074;SDS011;3578;51.568;6.932;2023-02-15T00:29:08;21.60;;;14.90;;
7074;SDS011;3578;51.568;6.932;2023-02-15T00:31:37;18.10;;;14.50;;
7074;SDS011;3578;51.568;6.932;2023-02-15T00:34:06;23.97;;;15.70;;
7074;SDS011;3578;51.568;6.932;2023-02-15T00:36:43;19.63;;;14.27;;
7074;SDS011;3578;51.568;6.932;2023-02-15T00:39:11;21.83;;;14.50;;
7074;SDS011;3578;51.568;6.932;2023-02-15T00:41:39;22.33;;;13.13;;
7074;SDS011;3578;51.568;6.932;2023-02-15T00:44:06;21.30;;;14.20;;
7074;SDS011;3578;51.568;6.932;2023-02-15T00:46:34;27.00;;;16.23;;
7074;SDS011;3578;51.568;6.932;2023-02-15T00:49:02;20.33;;;15.07;;
7074;SDS011;3578;51.568;6.932;2023-02-15T00:51:31;22.30;;;14.93;;
7074;SDS011;3578;51.568;6.932;2023-02-15T00:53:58;23.33;;;15.90;;
7074;SDS011;3578;51.568;6.932;2023-02-15T00:56:26;24.17;;;16.13;;
7074;SDS011;3578;51.568;6.932;2023-02-15T00:58:53;21.53;;;15.10;;
7074;SDS011;3578;51.568;6.932;2023-02-15T01:01:20;27.47;;;17.03;;
7074;SDS011;3578;51.568;6.932;2023-02-15T01:03:48;29.57;;;17.17;;
7074;SDS011;3578;51.568;6.932;2023-02-15T01:06:16;28.30;;;16.33;;
7074;SDS011;3578;51.568;6.932;2023-02-15T01:08:45;26.77;;;16.90;;
7074;SDS011;3578;51.568;6.932;2023-02-15T01:11:14;24.23;;;14.50;;
7074;SDS011;3578;51.568;6.932;2023-02-15T01:13:47;20.60;;;14.07;;
7074;SDS011;3578;51.568;6.932;2023-02-15T01:16:15;18.37;;;13.97;;
7074;SDS011;3578;51.568;6.932;2023-02-15T01:18:42;19.60;;;14.23;;
7074;SDS011;3578;51.568;6.932;2023-02-15T01:21:11;22.77;;;15.00;;
7074;SDS011;3578;51.568;6.932;2023-02-15T01:23:39;26.37;;;14.60;;
7074;SDS011;3578;51.568;6.932;2023-02-15T01:26:09;22.57;;;14.33;;
7074;SDS011;3578;51.568;6.932;2023-02-15T01:28:36;17.07;;;12.93;;
7074;SDS011;3578;51.568;6.932;2023-02-15T01:31:06;18.70;;;13.93;;
7074;SDS011;3578;51.568;6.932;2023-02-15T01:33:35;22.20;;;14.60;;
7074;SDS011;3578;51.568;6.932;2023-02-15T01:36:03;20.73;;;15.03;;
7074;SDS011;3578;51.568;6.932;2023-02-15T01:38:31;23.93;;;16.83;;
7074;SDS011;3578;51.568;6.932;2023-02-15T01:40:58;22.57;;;15.30;;
7074;SDS011;3578;51.568;6.932;2023-02-15T01:43:41;22.53;;;15.30;;
7074;SDS011;3578;51.568;6.932;2023-02-15T01:46:10;23.77;;;16.63;;
7074;SDS011;3578;51.568;6.932;2023-02-15T01:48:42;21.50;;;16.80;;
7074;SDS011;3578;51.568;6.932;2023-02-15T01:51:13;24.23;;;17.53;;
7074;SDS011;3578;51.568;6.932;2023-02-15T01:53:45;24.50;;;16.10;;
7074;SDS011;3578;51.568;6.932;2023-02-15T01:56:18;24.87;;;16.77;;
7074;SDS011;3578;51.568;6.932;2023-02-15T01:58:50;23.20;;;17.00;;
7074;SDS011;3578;51.568;6.932;2023-02-15T02:01:20;32.37;;;18.70;;
7074;SDS011;3578;51.568;6.932;2023-02-15T02:03:49;24.47;;;16.33;;
7074;SDS011;3578;51.568;6.932;2023-02-15T02:06:26;27.13;;;16.33;;
7074;SDS011;3578;51.568;6.932;2023-02-15T02:08:54;22.53;;;15.77;;
7074;SDS011;3578;51.568;6.932;2023-02-15T02:11:22;26.67;;;17.30;;
7074;SDS011;3578;51.568;6.932;2023-02-15T02:13:50;24.13;;;16.03;;
7074;SDS011;3578;51.568;6.932;2023-02-15T02:16:20;22.37;;;16.73;;
7074;SDS011;3578;51.568;6.932;2023-02-15T02:18:58;27.83;;;18.37;;
7074;SDS011;3578;51.568;6.932;2023-02-15T02:24:52;23.67;;;15.20;;
7074;SDS011;3578;51.568;6.932;2023-02-15T02:27:47;22.43;;;15.80;;
7074;SDS011;3578;51.568;6.932;2023-02-15T02:30:40;21.80;;;15.50;;
7074;SDS011;3578;51.568;6.932;2023-02-15T02:33:34;24.63;;;16.80;;
7074;SDS011;3578;51.568;6.932;2023-02-15T02:36:15;25.20;;;15.77;;
7074;SDS011;3578;51.568;6.932;2023-02-15T02:39:00;25.87;;;17.77;;
7074;SDS011;3578;51.568;6.932;2023-02-15T02:41:42;23.93;;;16.53;;
7074;SDS011;3578;51.568;6.932;2023-02-15T02:44:18;21.00;;;15.40;;
7074;SDS011;3578;51.568;6.932;2023-02-15T02:46:52;24.33;;;16.17;;
7074;SDS011;3578;51.568;6.932;2023-02-15T02:49:34;21.80;;;16.50;;
7074;SDS011;3578;51.568;6.932;2023-02-15T02:52:04;32.87;;;18.40;;
7074;SDS011;3578;51.568;6.932;2023-02-15T02:54:33;23.73;;;17.43;;
7074;SDS011;3578;51.568;6.932;2023-02-15T02:57:02;27.90;;;17.27;;
7074;SDS011;3578;51.568;6.932;2023-02-15T02:59:35;24.67;;;17.23;;
7074;SDS011;3578;51.568;6.932;2023-02-15T03:02:08;22.60;;;16.87;;
7074;SDS011;3578;51.568;6.932;2023-02-15T03:04:41;28.90;;;19.30;;
7074;SDS011;3578;51.568;6.932;2023-02-15T03:07:14;22.40;;;17.77;;
7074;SDS011;3578;51.568;6.932;2023-02-15T03:09:47;27.20;;;18.10;;
7074;SDS011;3578;51.568;6.932;2023-02-15T03:12:18;24.00;;;16.00;;
7074;SDS011;3578;51.568;6.932;2023-02-15T03:14:51;27.37;;;16.87;;
7074;SDS011;3578;51.568;6.932;2023-02-15T03:17:27;26.73;;;18.10;;
7074;SDS011;3578;51.568;6.932;2023-02-15T03:20:00;27.47;;;16.80;;
7074;SDS011;3578;51.568;6.932;2023-02-15T03:22:34;25.43;;;17.70;;
7074;SDS011;3578;51.568;6.932;2023-02-15T03:25:04;24.30;;;17.10;;
7074;SDS011;3578;51.568;6.932;2023-02-15T03:27:37;28.27;;;18.13;;
7074;SDS011;3578;51.568;6.932;2023-02-15T03:30:11;26.73;;;17.53;;
7074;SDS011;3578;51.568;6.932;2023-02-15T03:32:41;23.17;;;15.53;;
7074;SDS011;3578;51.568;6.932;2023-02-15T03:35:10;24.17;;;18.17;;
7074;SDS011;3578;51.568;6.932;2023-02-15T03:37:39;26.13;;;17.30;;
7074;SDS011;3578;51.568;6.932;2023-02-15T03:40:11;28.20;;;16.50;;
7074;SDS011;3578;51.568;6.932;2023-02-15T03:43:02;21.37;;;15.93;;
7074;SDS011;3578;51.568;6.932;2023-02-15T03:45:36;22.60;;;15.27;;
7074;SDS011;3578;51.568;6.932;2023-02-15T03:48:19;37.10;;;15.97;;
7074;SDS011;3578;51.568;6.932;2023-02-15T03:50:51;29.23;;;16.47;;
7074;SDS011;3578;51.568;6.932;2023-02-15T03:53:41;22.60;;;16.67;;
7074;SDS011;3578;51.568;6.932;2023-02-15T03:56:10;23.87;;;16.17;;
7074;SDS011;3578;51.568;6.932;2023-02-15T03:58:36;29.00;;;17.20;;
7074;SDS011;3578;51.568;6.932;2023-02-15T04:01:23;24.30;;;16.70;;
7074;SDS011;3578;51.568;6.932;2023-02-15T04:04:15;24.80;;;16.43;;
7074;SDS011;3578;51.568;6.932;2023-02-15T04:06:47;27.30;;;16.23;;
7074;SDS011;3578;51.568;6.932;2023-02-15T04:09:14;22.17;;;15.93;;
7074;SDS011;3578;51.568;6.932;2023-02-15T04:11:59;25.67;;;15.63;;
7074;SDS011;3578;51.568;6.932;2023-02-15T04:14:26;29.77;;;17.47;;
7074;SDS011;3578;51.568;6.932;2023-02-15T04:17:10;24.00;;;16.60;;
7074;SDS011;3578;51.568;6.932;2023-02-15T04:19:37;25.07;;;17.53;;
7074;SDS011;3578;51.568;6.932;2023-02-15T04:22:23;23.03;;;17.33;;
7074;SDS011;3578;51.568;6.932;2023-02-15T04:25:08;25.07;;;18.83;;
7074;SDS011;3578;51.568;6.932;2023-02-15T04:27:38;31.80;;;18.43;;
7074;SDS011;3578;51.568;6.932;2023-02-15T04:30:07;30.67;;;18.67;;
7074;SDS011;3578;51.568;6.932;2023-02-15T04:32:36;26.80;;;18.57;;
7074;SDS011;3578;51.568;6.932;2023-02-15T04:35:04;25.17;;;17.93;;
7074;SDS011;3578;51.568;6.932;2023-02-15T04:37:33;26.30;;;17.43;;
7074;SDS011;3578;51.568;6.932;2023-02-15T04:40:00;30.60;;;18.63;;
7074;SDS011;3578;51.568;6.932;2023-02-15T04:42:28;26.80;;;17.77;;
7074;SDS011;3578;51.568;6.932;2023-02-15T04:44:55;27.13;;;18.23;;
7074;SDS011;3578;51.568;6.932;2023-02-15T04:47:22;29.20;;;19.20;;
7074;SDS011;3578;51.568;6.932;2023-02-15T04:49:49;26.33;;;18.50;;
7074;SDS011;3578;51.568;6.932;2023-02-15T04:52:16;28.23;;;18.90;;
7074;SDS011;3578;51.568;6.932;2023-02-15T04:54:45;29.80;;;19.50;;
7074;SDS011;3578;51.568;6.932;2023-02-15T04:57:12;26.47;;;18.40;;
7074;SDS011;3578;51.568;6.932;2023-02-15T04:59:39;28.13;;;19.83;;
7074;SDS011;3578;51.568;6.932;2023-02-15T05:02:06;25.73;;;19.17;;
7074;SDS011;3578;51.568;6.932;2023-02-15T05:04:33;25.47;;;18.27;;
7074;SDS011;3578;51.568;6.932;2023-02-15T05:07:00;27.87;;;18.20;;
7074;SDS011;3578;51.568;6.932;2023-02-15T05:09:28;25.20;;;18.43;;
7074;SDS011;3578;51.568;6.932;2023-02-15T05:11:56;31.07;;;20.67;;
7074;SDS011;3578;51.568;6.932;2023-02-15T05:14:23;30.93;;;19.50;;
7074;SDS011;3578;51.568;6.932;2023-02-15T05:16:50;26.03;;;17.67;;
7074;SDS011;3578;51.568;6.932;2023-02-15T05:19:18;26.43;;;19.73;;
7074;SDS011;3578;51.568;6.932;2023-02-15T05:21:45;25.90;;;19.00;;
7074;SDS011;3578;51.568;6.932;2023-02-15T05:24:12;35.67;;;21.10;;
7074;SDS011;3578;51.568;6.932;2023-02-15T05:26:58;35.20;;;20.40;;
7074;SDS011;3578;51.568;6.932;2023-02-15T05:29:42;33.67;;;20.53;;
7074;SDS011;3578;51.568;6.932;2023-02-15T05:32:11;36.77;;;22.00;;
7074;SDS011;3578;51.568;6.932;2023-02-15T05:34:39;35.23;;;22.10;;
7074;SDS011;3578;51.568;6.932;2023-02-15T05:37:06;39.30;;;22.10;;
7074;SDS011;3578;51.568;6.932;2023-02-15T05:39:33;39.43;;;22.50;;
7074;SDS011;3578;51.568;6.932;2023-02-15T05:42:01;41.77;;;22.80;;
7074;SDS011;3578;51.568;6.932;2023-02-15T05:44:28;36.23;;;22.53;;
7074;SDS011;3578;51.568;6.932;2023-02-15T05:46:56;38.43;;;21.30;;
7074;SDS011;3578;51.568;6.932;2023-02-15T05:49:23;32.50;;;21.17;;
7074;SDS011;3578;51.568;6.932;2023-02-15T05:51:50;31.90;;;22.43;;
7074;SDS011;3578;51.568;6.932;2023-02-15T05:54:17;31.90;;;22.10;;
7074;SDS011;3578;51.568;6.932;2023-02-15T05:56:44;36.17;;;22.30;;
7074;SDS011;3578;51.568;6.932;2023-02-15T05:59:12;36.90;;;20.93;;
7074;SDS011;3578;51.568;6.932;2023-02-15T06:01:39;30.00;;;20.97;;
7074;SDS011;3578;51.568;6.932;2023-02-15T06:04:06;35.27;;;21.73;;
7074;SDS011;3578;51.568;6.932;2023-02-15T06:06:33;38.27;;;22.63;;
7074;SDS011;3578;51.568;6.932;2023-02-15T06:09:00;34.73;;;20.93;;
7074;SDS011;3578;51.568;6.932;2023-02-15T06:11:27;28.13;;;21.13;;
7074;SDS011;3578;51.568;6.932;2023-02-15T06:13:54;35.93;;;22.50;;
7074;SDS011;3578;51.568;6.932;2023-02-15T06:16:22;33.30;;;21.97;;
7074;SDS011;3578;51.568;6.932;2023-02-15T06:18:49;33.47;;;22.40;;
7074;SDS011;3578;51.568;6.932;2023-02-15T06:21:16;36.27;;;24.40;;
7074;SDS011;3578;51.568;6.932;2023-02-15T06:23:43;36.67;;;24.87;;
7074;SDS011;3578;51.568;6.932;2023-02-15T06:26:10;34.13;;;23.20;;
7074;SDS011;3578;51.568;6.932;2023-02-15T06:28:37;39.17;;;24.63;;
7074;SDS011;3578;51.568;6.932;2023-02-15T06:31:06;34.53;;;22.80;;
7074;SDS011;3578;51.568;6.932;2023-02-15T06:33:34;35.87;;;23.60;;
7074;SDS011;3578;51.568;6.932;2023-02-15T06:36:01;34.07;;;23.97;;
7074;SDS011;3578;51.568;6.932;2023-02-15T06:38:29;36.20;;;24.17;;
7074;SDS011;3578;51.568;6.932;2023-02-15T06:40:57;29.30;;;22.23;;
7074;SDS011;3578;51.568;6.932;2023-02-15T06:43:24;41.40;;;26.40;;
7074;SDS011;3578;51.568;6.932;2023-02-15T06:45:51;41.40;;;26.23;;
7074;SDS011;3578;51.568;6.932;2023-02-15T06:48:18;36.87;;;26.20;;
7074;SDS011;3578;51.568;6.932;2023-02-15T06:50:46;34.83;;;23.67;;
7074;SDS011;3578;51.568;6.932;2023-02-15T06:53:14;40.80;;;26.87;;
7074;SDS011;3578;51.568;6.932;2023-02-15T06:55:41;38.53;;;25.00;;
7074;SDS011;3578;51.568;6.932;2023-02-15T06:58:08;37.43;;;25.10;;
7074;SDS011;3578;51.568;6.932;2023-02-15T07:00:35;38.90;;;26.60;;
7074;SDS011;3578;51.568;6.932;2023-02-15T07:03:02;39.80;;;27.67;;
7074;SDS011;3578;51.568;6.932;2023-02-15T07:05:32;40.23;;;27.27;;
7074;SDS011;3578;51.568;6.932;2023-02-15T07:08:01;36.37;;;24.10;;
7074;SDS011;3578;51.568;6.932;2023-02-15T07:10:28;37.87;;;25.10;;
7074;SDS011;3578;51.568;6.932;2023-02-15T07:12:55;42.53;;;26.83;;
7074;SDS011;3578;51.568;6.932;2023-02-15T07:15:22;38.57;;;27.67;;
7074;SDS011;3578;51.568;6.932;2023-02-15T07:17:49;37.30;;;25.87;;
7074;SDS011;3578;51.568;6.932;2023-02-15T07:20:17;34.50;;;23.33;;
7074;SDS011;3578;51.568;6.932;2023-02-15T07:22:46;32.10;;;23.83;;
7074;SDS011;3578;51.568;6.932;2023-02-15T07:25:15;41.40;;;26.20;;
7074;SDS011;3578;51.568;6.932;2023-02-15T07:27:43;37.70;;;24.30;;
7074;SDS011;3578;51.568;6.932;2023-02-15T07:30:11;80.83;;;26.43;;
7074;SDS011;3578;51.568;6.932;2023-02-15T07:32:41;53.30;;;27.03;;
7074;SDS011;3578;51.568;6.932;2023-02-15T07:35:22;44.67;;;26.60;;
7074;SDS011;3578;51.568;6.932;2023-02-15T07:37:49;51.33;;;26.83;;
7074;SDS011;3578;51.568;6.932;2023-02-15T07:40:19;42.87;;;26.87;;
7074;SDS011;3578;51.568;6.932;2023-02-15T07:42:48;42.27;;;25.50;;
7074;SDS011;3578;51.568;6.932;2023-02-15T07:45:17;40.13;;;26.47;;
7074;SDS011;3578;51.568;6.932;2023-02-15T07:47:44;48.57;;;28.53;;
7074;SDS011;3578;51.568;6.932;2023-02-15T07:50:12;41.53;;;26.00;;
7074;SDS011;3578;51.568;6.932;2023-02-15T07:52:39;35.33;;;24.93;;
7074;SDS011;3578;51.568;6.932;2023-02-15T07:55:06;49.07;;;28.90;;
7074;SDS011;3578;51.568;6.932;2023-02-15T07:57:35;39.13;;;26.40;;
7074;SDS011;3578;51.568;6.932;2023-02-15T08:00:02;37.67;;;25.93;;
7074;SDS011;3578;51.568;6.932;2023-02-15T08:02:30;40.47;;;26.97;;
7074;SDS011;3578;51.568;6.932;2023-02-15T08:04:58;43.47;;;26.83;;
7074;SDS011;3578;51.568;6.932;2023-02-15T08:07:25;41.93;;;28.80;;
7074;SDS011;3578;51.568;6.932;2023-02-15T08:09:53;38.70;;;25.40;;
7074;SDS011;3578;51.568;6.932;2023-02-15T08:12:21;40.77;;;27.17;;
7074;SDS011;3578;51.568;6.932;2023-02-15T08:14:49;43.23;;;29.00;;
7074;SDS011;3578;51.568;6.932;2023-02-15T08:17:16;44.50;;;28.40;;
7074;SDS011;3578;51.568;6.932;2023-02-15T08:19:43;40.10;;;27.10;;
7074;SDS011;3578;51.568;6.932;2023-02-15T08:22:12;49.40;;;29.23;;
7074;SDS011;3578;51.568;6.932;2023-02-15T08:24:40;42.27;;;30.33;;
7074;SDS011;3578;51.568;6.932;2023-02-15T08:27:08;42.07;;;30.23;;
7074;SDS011;3578;51.568;6.932;2023-02-15T08:29:37;41.70;;;30.67;;
7074;SDS011;3578;51.568;6.932;2023-02-15T08:32:06;40.73;;;30.23;;
7074;SDS011;3578;51.568;6.932;2023-02-15T08:34:36;40.40;;;26.20;;
7074;SDS011;3578;51.568;6.932;2023-02-15T08:37:05;35.40;;;26.87;;
7074;SDS011;3578;51.568;6.932;2023-02-15T08:39:32;41.50;;;27.23;;
7074;SDS011;3578;51.568;6.932;2023-02-15T08:42:00;41.50;;;26.13;;
7074;SDS011;3578;51.568;6.932;2023-02-15T08:44:27;57.50;;;28.90;;
7074;SDS011;3578;51.568;6.932;2023-02-15T08:46:54;48.17;;;27.73;;
7074;SDS011;3578;51.568;6.932;2023-02-15T08:49:24;41.80;;;28.90;;
7074;SDS011;3578;51.568;6.932;2023-02-15T08:51:51;45.77;;;29.53;;
7074;SDS011;3578;51.568;6.932;2023-02-15T08:54:19;40.80;;;28.87;;
7074;SDS011;3578;51.568;6.932;2023-02-15T08:56:47;42.33;;;29.03;;
7074;SDS011;3578;51.568;6.932;2023-02-15T08:59:15;40.20;;;29.67;;
7074;SDS011;3578;51.568;6.932;2023-02-15T09:01:44;41.50;;;31.60;;
7074;SDS011;3578;51.568;6.932;2023-02-15T09:04:13;45.07;;;32.60;;
7074;SDS011;3578;51.568;6.932;2023-02-15T09:06:43;42.10;;;32.70;;
7074;SDS011;3578;51.568;6.932;2023-02-15T09:09:12;43.93;;;33.33;;
7074;SDS011;3578;51.568;6.932;2023-02-15T09:11:40;41.23;;;31.80;;
7074;SDS011;3578;51.568;6.932;2023-02-15T09:14:09;42.67;;;33.00;;
7074;SDS011;3578;51.568;6.932;2023-02-15T09:16:39;39.87;;;32.23;;
7074;SDS011;3578;51.568;6.932;2023-02-15T09:19:09;43.73;;;33.67;;
7074;SDS011;3578;51.568;6.932;2023-02-15T09:21:37;49.67;;;32.17;;
7074;SDS011;3578;51.568;6.932;2023-02-15T09:24:07;49.43;;;31.50;;
7074;SDS011;3578;51.568;6.932;2023-02-15T09:26:38;43.70;;;32.23;;
7074;SDS011;3578;51.568;6.932;2023-02-15T09:29:07;43.23;;;29.30;;
7074;SDS011;3578;51.568;6.932;2023-02-15T09:31:37;42.67;;;32.00;;
7074;SDS011;3578;51.568;6.932;2023-02-15T09:34:09;42.60;;;31.53;;
7074;SDS011;3578;51.568;6.932;2023-02-15T09:36:37;45.60;;;31.67;;
7074;SDS011;3578;51.568;6.932;2023-02-15T09:39:08;36.67;;;29.63;;
7074;SDS011;3578;51.568;6.932;2023-02-15T09:41:43;41.50;;;29.73;;
7074;SDS011;3578;51.568;6.932;2023-02-15T09:44:57;38.70;;;28.10;;
7074;SDS011;3578;51.568;6.932;2023-02-15T09:47:52;38.60;;;29.23;;
7074;SDS011;3578;51.568;6.932;2023-02-15T09:50:44;35.00;;;28.27;;
7074;SDS011;3578;51.568;6.932;2023-02-15T09:53:28;40.37;;;26.70;;
7074;SDS011;3578;51.568;6.932;2023-02-15T09:56:14;32.10;;;23.67;;
7074;SDS011;3578;51.568;6.932;2023-02-15T09:58:51;30.07;;;21.50;;
7074;SDS011;3578;51.568;6.932;2023-02-15T10:01:30;29.27;;;21.17;;
7074;SDS011;3578;51.568;6.932;2023-02-15T10:04:16;23.30;;;19.07;;
7074;SDS011;3578;51.568;6.932;2023-02-15T10:07:04;29.17;;;19.80;;
7074;SDS011;3578;51.568;6.932;2023-02-15T10:09:48;26.60;;;18.93;;
7074;SDS011;3578;51.568;6.932;2023-02-15T10:12:36;28.10;;;19.00;;
7074;SDS011;3578;51.568;6.932;2023-02-15T10:15:34;25.50;;;19.10;;
7074;SDS011;3578;51.568;6.932;2023-02-15T10:18:31;25.57;;;19.17;;
7074;SDS011;3578;51.568;6.932;2023-02-15T10:21:11;28.37;;;18.40;;
7074;SDS011;3578;51.568;6.932;2023-02-15T10:23:53;23.80;;;17.60;;
7074;SDS011;3578;51.568;6.932;2023-02-15T10:26:41;23.70;;;17.93;;
7074;SDS011;3578;51.568;6.932;2023-02-15T10:29:15;24.20;;;17.50;;
7074;SDS011;3578;51.568;6.932;2023-02-15T10:31:57;23.93;;;17.17;;
7074;SDS011;3578;51.568;6.932;2023-02-15T10:34:39;22.10;;;17.27;;
7074;SDS011;3578;51.568;6.932;2023-02-15T10:37:23;22.20;;;16.30;;
7074;SDS011;3578;51.568;6.932;2023-02-15T10:40:25;21.07;;;15.53;;
7074;SDS011;3578;51.568;6.932;2023-02-15T10:43:06;20.70;;;15.40;;
7074;SDS011;3578;51.568;6.932;2023-02-15T10:45:52;26.93;;;16.70;;
7074;SDS011;3578;51.568;6.932;2023-02-15T10:48:33;25.43;;;14.80;;
7074;SDS011;3578;51.568;6.932;2023-02-15T10:51:22;21.40;;;15.03;;
7074;SDS011;3578;51.568;6.932;2023-02-15T10:54:05;18.33;;;14.07;;
7074;SDS011;3578;51.568;6.932;2023-02-15T10:56:46;21.07;;;15.47;;
7074;SDS011;3578;51.568;6.932;2023-02-15T10:59:30;18.00;;;13.73;;
7074;SDS011;3578;51.568;6.932;2023-02-15T11:02:20;19.07;;;13.50;;
7074;SDS011;3578;51.568;6.932;2023-02-15T11:05:02;22.33;;;14.93;;
7074;SDS011;3578;51.568;6.932;2023-02-15T11:07:45;22.73;;;15.60;;
7074;SDS011;3578;51.568;6.932;2023-02-15T11:10:22;24.17;;;14.90;;
7074;SDS011;3578;51.568;6.932;2023-02-15T11:12:56;21.80;;;14.63;;
7074;SDS011;3578;51.568;6.932;2023-02-15T11:15:29;22.83;;;14.50;;
7074;SDS011;3578;51.568;6.932;2023-02-15T11:18:03;21.47;;;14.97;;
7074;SDS011;3578;51.568;6.932;2023-02-15T11:20:38;22.23;;;14.63;;
7074;SDS011;3578;51.568;6.932;2023-02-15T11:23:15;17.30;;;13.03;;
7074;SDS011;3578;51.568;6.932;2023-02-15T11:25:44;22.17;;;15.57;;
7074;SDS011;3578;51.568;6.932;2023-02-15T11:28:19;20.03;;;14.50;;
7074;SDS011;3578;51.568;6.932;2023-02-15T11:30:54;18.90;;;14.23;;
7074;SDS011;3578;51.568;6.932;2023-02-15T11:33:26;20.73;;;13.73;;
7074;SDS011;3578;51.568;6.932;2023-02-15T11:35:58;21.23;;;14.40;;
7074;SDS011;3578;51.568;6.932;2023-02-15T11:38:32;21.90;;;13.37;;
7074;SDS011;3578;51.568;6.932;2023-02-15T11:41:01;16.63;;;13.30;;
7074;SDS011;3578;51.568;6.932;2023-02-15T11:43:34;19.40;;;13.30;;
7074;SDS011;3578;51.568;6.932;2023-02-15T11:46:06;15.70;;;13.03;;
7074;SDS011;3578;51.568;6.932;2023-02-15T11:48:37;18.57;;;13.63;;
7074;SDS011;3578;51.568;6.932;2023-02-15T11:51:05;16.47;;;12.70;;
7074;SDS011;3578;51.568;6.932;2023-02-15T11:53:38;18.83;;;13.30;;
7074;SDS011;3578;51.568;6.932;2023-02-15T11:56:10;22.80;;;14.10;;
7074;SDS011;3578;51.568;6.932;2023-02-15T11:58:41;20.10;;;14.07;;
7074;SDS011;3578;51.568;6.932;2023-02-15T12:01:13;22.93;;;12.63;;
7074;SDS011;3578;51.568;6.932;2023-02-15T12:03:47;23.83;;;13.83;;
7074;SDS011;3578;51.568;6.932;2023-02-15T12:06:18;19.00;;;13.50;;
7074;SDS011;3578;51.568;6.932;2023-02-15T12:08:52;16.23;;;12.30;;
7074;SDS011;3578;51.568;6.932;2023-02-15T12:11:33;18.93;;;13.40;;
7074;SDS011;3578;51.568;6.932;2023-02-15T12:14:04;20.40;;;13.23;;
7074;SDS011;3578;51.568;6.932;2023-02-15T12:16:34;17.40;;;12.97;;
7074;SDS011;3578;51.568;6.932;2023-02-15T12:19:27;18.37;;;12.83;;
7074;SDS011;3578;51.568;6.932;2023-02-15T12:21:58;21.60;;;13.60;;
7074;SDS011;3578;51.568;6.932;2023-02-15T12:24:28;22.30;;;14.03;;
7074;SDS011;3578;51.568;6.932;2023-02-15T12:27:01;18.87;;;13.63;;
7074;SDS011;3578;51.568;6.932;2023-02-15T12:29:32;17.53;;;12.60;;
7074;SDS011;3578;51.568;6.932;2023-02-15T12:32:09;17.20;;;12.23;;
7074;SDS011;3578;51.568;6.932;2023-02-15T12:34:45;20.37;;;12.90;;
7074;SDS011;3578;51.568;6.932;2023-02-15T12:37:15;20.23;;;13.17;;
7074;SDS011;3578;51.568;6.932;2023-02-15T12:39:50;18.20;;;12.03;;
7074;SDS011;3578;51.568;6.932;2023-02-15T12:42:20;18.43;;;11.97;;
7074;SDS011;3578;51.568;6.932;2023-02-15T12:44:56;16.63;;;12.00;;
7074;SDS011;3578;51.568;6.932;2023-02-15T12:47:26;16.80;;;12.00;;
7074;SDS011;3578;51.568;6.932;2023-02-15T12:50:07;22.00;;;12.40;;
7074;SDS011;3578;51.568;6.932;2023-02-15T12:52:43;21.03;;;12.60;;
7074;SDS011;3578;51.568;6.932;2023-02-15T12:55:18;21.13;;;13.77;;
7074;SDS011;3578;51.568;6.932;2023-02-15T12:57:49;20.77;;;13.60;;
7074;SDS011;3578;51.568;6.932;2023-02-15T13:00:32;20.10;;;13.37;;
7074;SDS011;3578;51.568;6.932;2023-02-15T13:03:00;22.57;;;13.67;;
7074;SDS011;3578;51.568;6.932;2023-02-15T13:05:32;27.03;;;14.50;;
7074;SDS011;3578;51.568;6.932;2023-02-15T13:08:03;16.20;;;11.93;;
7074;SDS011;3578;51.568;6.932;2023-02-15T13:10:39;22.70;;;13.03;;
7074;SDS011;3578;51.568;6.932;2023-02-15T13:13:09;19.27;;;12.60;;
7074;SDS011;3578;51.568;6.932;2023-02-15T13:15:46;23.53;;;12.87;;
7074;SDS011;3578;51.568;6.932;2023-02-15T13:18:19;21.47;;;13.00;;
7074;SDS011;3578;51.568;6.932;2023-02-15T13:20:56;23.07;;;13.93;;
7074;SDS011;3578;51.568;6.932;2023-02-15T13:23:26;20.77;;;12.87;;
7074;SDS011;3578;51.568;6.932;2023-02-15T13:25:56;22.77;;;14.40;;
7074;SDS011;3578;51.568;6.932;2023-02-15T13:28:32;20.60;;;12.73;;
7074;SDS011;3578;51.568;6.932;2023-02-15T13:31:11;19.77;;;12.60;;
7074;SDS011;3578;51.568;6.932;2023-02-15T13:33:41;18.80;;;12.53;;
7074;SDS011;3578;51.568;6.932;2023-02-15T13:36:14;20.40;;;12.57;;
7074;SDS011;3578;51.568;6.932;2023-02-15T13:38:58;24.97;;;12.70;;
7074;SDS011;3578;51.568;6.932;2023-02-15T13:41:39;23.70;;;12.37;;
7074;SDS011;3578;51.568;6.932;2023-02-15T13:44:18;17.60;;;11.43;;
7074;SDS011;3578;51.568;6.932;2023-02-15T13:47:03;21.67;;;12.73;;
7074;SDS011;3578;51.568;6.932;2023-02-15T13:49:45;21.47;;;12.63;;
7074;SDS011;3578;51.568;6.932;2023-02-15T13:52:32;23.93;;;13.00;;
7074;SDS011;3578;51.568;6.932;2023-02-15T13:55:17;19.47;;;12.60;;
7074;SDS011;3578;51.568;6.932;2023-02-15T13:58:02;25.00;;;13.37;;
7074;SDS011;3578;51.568;6.932;2023-02-15T14:00:58;20.43;;;14.30;;
7074;SDS011;3578;51.568;6.932;2023-02-15T14:03:45;20.10;;;12.10;;
7074;SDS011;3578;51.568;6.932;2023-02-15T14:07:02;21.83;;;11.97;;
7074;SDS011;3578;51.568;6.932;2023-02-15T14:09:58;21.43;;;11.97;;
7074;SDS011;3578;51.568;6.932;2023-02-15T14:12:47;19.07;;;12.70;;
7074;SDS011;3578;51.568;6.932;2023-02-15T14:15:35;19.07;;;12.53;;
7074;SDS011;3578;51.568;6.932;2023-02-15T14:18:12;18.67;;;12.83;;
7074;SDS011;3578;51.568;6.932;2023-02-15T14:20:53;21.70;;;12.30;;
7074;SDS011;3578;51.568;6.932;2023-02-15T14:23:32;18.50;;;13.20;;
7074;SDS011;3578;51.568;6.932;2023-02-15T14:26:14;19.73;;;13.70;;
7074;SDS011;3578;51.568;6.932;2023-02-15T14:28:50;18.57;;;12.00;;
7074;SDS011;3578;51.568;6.932;2023-02-15T14:31:26;26.13;;;12.73;;
7074;SDS011;3578;51.568;6.932;2023-02-15T14:33:58;19.13;;;13.63;;
7074;SDS011;3578;51.568;6.932;2023-02-15T14:36:26;21.50;;;12.97;;
7074;SDS011;3578;51.568;6.932;2023-02-15T14:38:58;19.80;;;12.00;;
7074;SDS011;3578;51.568;6.932;2023-02-15T14:42:01;20.37;;;13.30;;
7074;SDS011;3578;51.568;6.932;2023-02-15T14:44:36;21.47;;;13.70;;
7074;SDS011;3578;51.568;6.932;2023-02-15T14:47:09;17.53;;;12.00;;
7074;SDS011;3578;51.568;6.932;2023-02-15T14:49:42;19.30;;;11.90;;
7074;SDS011;3578;51.568;6.932;2023-02-15T14:52:10;21.90;;;11.90;;
7074;SDS011;3578;51.568;6.932;2023-02-15T14:54:53;22.20;;;13.20;;
7074;SDS011;3578;51.568;6.932;2023-02-15T15:00:36;20.33;;;12.70;;
7074;SDS011;3578;51.568;6.932;2023-02-15T15:05:50;18.77;;;12.40;;
7074;SDS011;3578;51.568;6.932;2023-02-15T15:08:22;21.00;;;13.70;;
7074;SDS011;3578;51.568;6.932;2023-02-15T15:10:58;24.20;;;13.50;;
7074;SDS011;3578;51.568;6.932;2023-02-15T15:14:11;24.20;;;13.57;;
7074;SDS011;3578;51.568;6.932;2023-02-15T15:17:08;18.47;;;12.63;;
7074;SDS011;3578;51.568;6.932;2023-02-15T15:22:40;21.90;;;13.30;;
7074;SDS011;3578;51.568;6.932;2023-02-15T15:25:09;21.90;;;14.50;;
7074;SDS011;3578;51.568;6.932;2023-02-15T15:28:00;23.17;;;14.47;;
7074;SDS011;3578;51.568;6.932;2023-02-15T15:37:14;24.07;;;14.00;;
7074;SDS011;3578;51.568;6.932;2023-02-15T15:46:54;24.73;;;13.60;;
7074;SDS011;3578;51.568;6.932;2023-02-15T15:49:54;22.73;;;13.90;;
7074;SDS011;3578;51.568;6.932;2023-02-15T15:52:23;20.80;;;14.63;;